: Check out the following pages that have been added and/or updated for Howth Tides, Weather Warnings, Sea Area Forecasts, Marine Warnings & Sea Crossings Forecasts.

Ireland METAR reports

 

EIDW - Dublin Airport, Ireland
Distance from station: WNW 13km
Updated: 09/12/2022 05:00
Few Clouds
Few Clouds
 Wind from W
Wind: W 11 km/h
Temperature: -2°C
Wind Chill: -6°C
Dew Point: -3°C
Humidity: 93%
Barometer: 1011 hPa
Clouds: Few Clouds
Visibility: 10 km
Cloud details: Few Clouds 457 m
Few Clouds 549 m
2022/12/09 05:00 EIDW 090500Z 26006KT 9999 FEW015 FEW018CB M02/M03 Q1011 NOSIG
EIME - Casement (mil), Ireland
Distance from station: WSW 26km
Updated: 09/12/2022 05:00
Few Clouds
Few Clouds
 Wind from W
Wind: W 9 km/h
Temperature: -4°C
Wind Chill: -8°C
Dew Point: -4°C
Humidity: 100%
Barometer: 1011 hPa
Clouds: Few Clouds
Visibility: 10 km
Cloud details: Few Clouds 427 m
2022/12/09 05:00 EIME 090500Z 27005KT 9999 FEW014 M04/M04 Q1011
 
EGAC - Belfast Harbour, United Kingdom
Distance from station: N 140km
Updated: 09/12/2022 04:50
Clear
Clear
 Wind from WNW
Wind: WNW 9 km/h
Temperature: 2°C
Wind Chill: -1°C
Dew Point: -1°C
Humidity: 81%
Barometer: 1011 hPa
Clouds: Clear
Visibility: 10 km
2022/12/09 04:50 EGAC 090450Z AUTO 30005KT 250V360 9999 NCD 02/M01 Q1011
EGAA - Belfast/Aldergro, United Kingdom
Distance from station: N 141km
Updated: 09/12/2022 04:50
Clear
Clear
 Wind from S
Wind: S 6 km/h
Temperature: -4°C
Dew Point: -5°C
Humidity: 93%
Barometer: 1011 hPa
Clouds: Clear
Visibility: 10 km
2022/12/09 04:50 EGAA 090450Z AUTO 18003KT 9999 NCD M04/M05 Q1011
 
EIWF - Waterford Arpt, Ireland
Distance from station: SSW 148km
Updated: 08/12/2022 20:30
NOT Current
Clear
Clear
 Wind from NNW
Wind: NNW 15 km/h
Temperature: 0°C
Wind Chill: -4°C
Dew Point: -1°C
Humidity: 93%
Barometer: 1012 hPa
Summary: Clear
Visibility: greater than 10 km
2022/12/08 20:30 EIWF 082030Z 34008KT CAVOK M00/M01 Q1012
EIKN - Connaught Apt, Ireland
Distance from station: WNW 191km
Updated: 08/12/2022 15:00
NOT Current
Few Clouds
Few Clouds
 Wind from NW
Wind: NW 6 km/h
Temperature: 2°C
Dew Point: 0°C
Humidity: 87%
Barometer: 1013 hPa
Clouds: Few Clouds
Visibility: 10 km
Cloud details: Few Clouds 366 m
Few Clouds 610 m
2022/12/08 15:00 EIKN 081500Z 31003KT 9999 FEW012 FEW020CB 02/M00 Q1013 NOSIG
 
EISG - Sligo Arpt, Ireland
Distance from station: WNW 195km
Updated: 08/12/2022 20:30
NOT Current
Clear
Clear
 Wind from NNE
Wind: NNE 9 km/h
Temperature: 2°C
Wind Chill: -1°C
Dew Point: 1°C
Humidity: 93%
Barometer: 1014 hPa
Summary: Clear
Visibility: greater than 10 km
2022/12/08 20:30 EISG 082030Z 02005KT CAVOK 02/01 Q1014
EGAE - Eglinton/Londond, United Kingdom
Distance from station: NNW 198km
Updated: 08/12/2022 20:20
NOT Current
Partly cloudy
Partly cloudy
 Wind from SSW
Wind: SSW 11 km/h
Temperature: 1°C
Wind Chill: -2°C
Dew Point: 1°C
Humidity: 100%
Barometer: 1014 hPa
Clouds: Partly cloudy
Visibility: 10 km
Cloud details: Few Clouds 488 m
Partly cloudy 884 m
2022/12/08 20:20 EGAE 082020Z 20006KT 9999 FEW016 SCT029 01/01 Q1014
 
EINN - Shannon Airport, Ireland
Distance from station: WSW 204km
Updated: 09/12/2022 05:00
Partly cloudy
Partly cloudy
 Wind from N
Wind: N 4 km/h
Temperature: -3°C
Dew Point: -4°C
Humidity: 93%
Barometer: 1013 hPa
Clouds: Partly cloudy
Visibility: 8 km
2022/12/09 05:00 EINN 090500Z 35002KT 8000 NSC M03/M04 Q1013 NOSIG
EICK - Cork Arpt/Corcai, Ireland
Distance from station: SW 234km
Updated: 09/12/2022 05:00
Few Clouds
Few Clouds
 Wind from NW
Wind: NW 20 km/h
Temperature: -3°C
Wind Chill: -9°C
Dew Point: -3°C
Humidity: 100%
Barometer: 1011 hPa
Clouds: Few Clouds
Visibility: 10 km
Cloud details: Few Clouds 61 m
2022/12/09 05:00 EICK 090500Z 32011KT 9999 FEW002 M03/M03 Q1011 NOSIG